createdAt,value
2024-02-29T00:07:25.716Z,21.80
2024-02-29T00:17:26.688Z,23.60
2024-02-29T00:27:26.965Z,23.30
2024-02-29T00:37:27.589Z,22.20
2024-02-29T00:47:28.181Z,24.00
2024-02-29T00:57:28.721Z,24.40
2024-02-29T01:07:29.310Z,26.30
2024-02-29T01:17:29.883Z,22.80
2024-02-29T01:27:30.629Z,26.30
2024-02-29T01:37:31.077Z,27.70
2024-02-29T01:47:31.713Z,26.10
2024-02-29T01:57:32.278Z,28.60
2024-02-29T02:07:32.631Z,24.10
2024-02-29T02:17:33.680Z,24.00
2024-02-29T02:27:33.809Z,27.70
2024-02-29T02:37:34.305Z,24.00
2024-02-29T02:47:34.914Z,23.30
2024-02-29T02:57:35.546Z,25.20
2024-02-29T03:07:36.047Z,23.30
2024-02-29T03:17:36.655Z,21.60
2024-02-29T03:27:37.135Z,23.40
2024-02-29T03:37:37.774Z,21.00
2024-02-29T03:47:38.245Z,22.70
2024-02-29T03:57:38.822Z,20.80
2024-02-29T04:07:39.392Z,21.80
2024-02-29T04:17:39.998Z,23.60
2024-02-29T04:27:40.845Z,19.70
2024-02-29T04:37:41.113Z,20.20
2024-02-29T04:47:41.716Z,24.80
2024-02-29T04:57:42.284Z,28.50
2024-02-29T05:07:42.805Z,26.90
2024-02-29T05:17:43.400Z,25.40
2024-02-29T05:27:44.044Z,21.80
2024-02-29T05:37:44.505Z,21.40
2024-02-29T05:47:45.040Z,24.30
2024-02-29T05:57:45.662Z,21.10
2024-02-29T06:07:46.156Z,21.80
2024-02-29T06:17:47.041Z,26.20
2024-02-29T06:27:47.359Z,23.30
2024-02-29T06:37:47.949Z,27.60
2024-02-29T06:47:48.627Z,25.00
2024-02-29T06:57:49.461Z,25.80
2024-02-29T07:07:49.984Z,28.90
2024-02-29T07:17:50.733Z,22.50
2024-02-29T07:27:51.589Z,20.70
2024-02-29T07:37:54.709Z,24.30
2024-02-29T07:47:52.594Z,21.10
2024-02-29T07:57:53.332Z,20.30
2024-02-29T08:07:53.956Z,19.10
2024-02-29T08:17:54.801Z,24.00
2024-02-29T08:27:55.716Z,22.50
2024-02-29T08:37:57.986Z,20.20
2024-02-29T08:47:57.183Z,20.90
2024-02-29T08:57:57.946Z,19.50
2024-02-29T09:07:58.926Z,18.30
2024-02-29T09:17:59.898Z,16.40
2024-02-29T09:28:00.830Z,21.60
2024-02-29T09:38:02.017Z,20.80
2024-02-29T09:48:02.936Z,17.50
2024-02-29T09:58:04.082Z,19.00
2024-02-29T10:08:07.028Z,16.70
2024-02-29T10:18:06.446Z,19.00
2024-02-29T10:28:07.956Z,24.20
2024-02-29T10:38:09.097Z,18.70
2024-02-29T10:48:10.351Z,16.90
2024-02-29T10:58:11.544Z,15.90
2024-02-29T11:08:12.708Z,14.70
2024-02-29T11:18:14.075Z,13.20
2024-02-29T11:28:15.353Z,11.60
2024-02-29T11:48:17.863Z,11.20
2024-02-29T11:58:19.329Z,11.00
2024-02-29T12:08:20.453Z,12.60
2024-02-29T12:18:21.828Z,11.50
2024-02-29T12:28:23.285Z,15.70
2024-02-29T12:38:24.519Z,13.20
2024-02-29T12:48:25.922Z,12.50
2024-02-29T12:58:27.564Z,12.80
2024-02-29T13:08:28.596Z,15.00
2024-02-29T13:18:29.948Z,14.30
2024-02-29T13:28:31.253Z,12.60
2024-02-29T13:38:32.841Z,11.30
2024-02-29T13:48:34.060Z,12.10
2024-02-29T13:58:35.206Z,12.20
2024-02-29T14:08:36.751Z,12.30
2024-02-29T14:18:37.967Z,11.90
2024-02-29T14:28:39.182Z,11.20
2024-02-29T14:38:40.665Z,12.80
2024-02-29T14:48:42.200Z,11.90
2024-02-29T14:58:43.186Z,11.60
2024-02-29T15:08:44.442Z,11.20
2024-02-29T15:18:45.846Z,10.20
2024-02-29T15:28:47.321Z,12.30
2024-02-29T15:38:48.485Z,11.00
2024-02-29T15:48:49.566Z,11.40
2024-02-29T15:58:50.855Z,9.30
2024-02-29T16:08:52.104Z,11.00
2024-02-29T16:18:53.310Z,10.50
2024-02-29T16:28:54.396Z,10.90
2024-02-29T16:38:55.596Z,11.50
2024-02-29T16:48:56.790Z,11.00
2024-02-29T16:58:57.972Z,14.10
2024-02-29T17:08:59.171Z,14.20
2024-02-29T17:19:00.650Z,14.50
2024-02-29T17:29:01.981Z,14.00
2024-02-29T17:39:02.677Z,14.30
2024-02-29T17:49:03.854Z,14.80
2024-02-29T17:59:04.980Z,14.50
2024-02-29T18:09:06.033Z,14.10
2024-02-29T18:19:07.110Z,17.20
2024-02-29T18:29:07.987Z,16.20
2024-02-29T18:39:11.277Z,16.70
2024-02-29T18:49:09.928Z,15.90
2024-02-29T18:59:11.221Z,19.40
2024-02-29T19:09:12.158Z,22.10
2024-02-29T19:19:13.365Z,20.00
2024-02-29T19:29:14.051Z,23.90
2024-02-29T19:39:15.137Z,20.90
2024-02-29T19:49:16.146Z,23.80
2024-02-29T19:59:17.070Z,21.00
2024-02-29T20:09:18.166Z,18.00
2024-02-29T20:19:19.165Z,19.10
2024-02-29T20:29:20.187Z,20.50
2024-02-29T20:39:21.393Z,18.70
2024-02-29T20:49:22.175Z,17.50
2024-02-29T20:59:25.339Z,19.90
2024-02-29T21:09:24.047Z,20.90
2024-02-29T21:19:25.272Z,18.40
2024-02-29T21:29:25.942Z,24.00
2024-02-29T21:39:35.872Z,22.10
2024-02-29T21:49:27.997Z,23.30
2024-02-29T21:59:28.756Z,27.00
2024-02-29T22:09:29.741Z,21.70
2024-02-29T22:19:30.744Z,24.50
2024-02-29T22:29:31.815Z,27.00
2024-02-29T22:39:32.753Z,26.30
2024-02-29T22:49:33.653Z,22.70
2024-02-29T22:59:34.507Z,21.20
2024-02-29T23:09:35.059Z,22.30
2024-02-29T23:19:35.873Z,23.20
2024-02-29T23:29:36.653Z,24.30
2024-02-29T23:39:37.471Z,22.70
2024-02-29T23:49:38.648Z,29.70
2024-02-29T23:59:39.248Z,25.20
